createdAt,value
2018-02-15T00:01:58.393Z,70.80
2018-02-15T00:04:28.304Z,70.30
2018-02-15T00:06:57.349Z,70.30
2018-02-15T00:09:26.230Z,72.10
2018-02-15T00:11:55.120Z,72.50
2018-02-15T00:14:24.025Z,71.90
2018-02-15T00:16:52.940Z,71.90
2018-02-15T00:19:21.836Z,71.90
2018-02-15T00:21:51.390Z,74.10
2018-02-15T00:24:20.241Z,74.10
2018-02-15T00:26:49.826Z,71.80
2018-02-15T00:29:19.514Z,73.10
2018-02-15T00:31:48.627Z,73.00
2018-02-15T00:34:17.419Z,73.20
2018-02-15T00:36:46.349Z,72.80
2018-02-15T00:39:16.105Z,73.30
2018-02-15T00:41:45.096Z,73.30
2018-02-15T00:44:15.026Z,73.90
2018-02-15T00:46:44.015Z,73.90
2018-02-15T00:49:12.956Z,74.30
2018-02-15T00:51:41.777Z,74.80
2018-02-15T00:54:10.578Z,75.20
2018-02-15T00:56:40.132Z,74.80
2018-02-15T00:59:09.818Z,74.70
2018-02-15T01:01:38.626Z,74.70
2018-02-15T01:04:07.394Z,75.30
2018-02-15T01:06:36.345Z,74.70
2018-02-15T01:09:05.367Z,74.80
2018-02-15T01:11:34.118Z,75.60
2018-02-15T01:14:02.872Z,76.40
2018-02-15T01:16:32.328Z,72.10
2018-02-15T01:19:01.112Z,72.10
2018-02-15T01:21:30.649Z,70.10
2018-02-15T01:24:00.305Z,70.10
2018-02-15T01:26:29.263Z,69.90
2018-02-15T01:28:58.053Z,70.90
2018-02-15T01:31:27.528Z,72.80
2018-02-15T01:33:56.260Z,72.80
2018-02-15T01:36:25.690Z,74.80
2018-02-15T01:38:54.588Z,74.70
2018-02-15T01:41:23.559Z,74.30
2018-02-15T01:43:52.394Z,74.80
2018-02-15T01:46:21.252Z,74.80
2018-02-15T01:48:50.258Z,75.10
2018-02-15T01:51:19.068Z,75.30
2018-02-15T01:53:48.540Z,76.30
2018-02-15T01:56:17.313Z,76.20
2018-02-15T01:58:46.853Z,76.60
2018-02-15T02:01:15.756Z,76.50
2018-02-15T02:03:44.524Z,76.40
2018-02-15T02:06:13.229Z,76.60
2018-02-15T02:08:42.007Z,76.40
2018-02-15T02:11:11.165Z,76.00
2018-02-15T02:13:40.761Z,76.60
2018-02-15T02:16:10.189Z,76.20
2018-02-15T02:18:39.434Z,76.20
2018-02-15T02:21:08.982Z,77.00
2018-02-15T02:23:38.030Z,76.90
2018-02-15T02:26:07.566Z,76.60
2018-02-15T02:28:37.081Z,77.10
2018-02-15T02:31:05.822Z,77.10
2018-02-15T02:33:34.816Z,77.00
2018-02-15T02:36:03.540Z,77.30
2018-02-15T02:38:32.527Z,77.00
2018-02-15T02:41:02.066Z,77.40
2018-02-15T02:43:30.789Z,77.30
2018-02-15T02:45:59.698Z,77.40
2018-02-15T02:48:28.737Z,76.30
2018-02-15T02:50:57.833Z,77.10
2018-02-15T02:53:26.619Z,77.20
2018-02-15T02:55:55.661Z,77.40
2018-02-15T02:58:24.379Z,78.10
2018-02-15T03:00:53.163Z,79.00
2018-02-15T03:03:22.655Z,78.30
2018-02-15T03:05:52.291Z,78.40
2018-02-15T03:08:21.054Z,78.30
2018-02-15T03:10:50.131Z,79.00
2018-02-15T03:13:19.605Z,79.10
2018-02-15T03:15:48.520Z,79.10
2018-02-15T03:18:17.338Z,78.80
2018-02-15T03:20:46.907Z,80.10
2018-02-15T03:23:16.598Z,80.10
2018-02-15T03:25:45.409Z,80.00
2018-02-15T03:28:14.136Z,80.10
2018-02-15T03:30:43.270Z,80.80
2018-02-15T03:33:12.344Z,79.50
2018-02-15T03:35:41.115Z,79.50
2018-02-15T03:38:10.579Z,79.30
2018-02-15T03:40:39.350Z,79.30
2018-02-15T03:43:08.079Z,79.80
2018-02-15T03:45:36.898Z,79.60
2018-02-15T03:48:05.717Z,78.40
2018-02-15T03:50:34.760Z,78.40
2018-02-15T03:53:04.239Z,79.20
2018-02-15T03:55:33.022Z,79.20
2018-02-15T03:58:02.033Z,77.90
2018-02-15T04:00:31.078Z,76.80
2018-02-15T04:02:59.826Z,77.20
2018-02-15T04:05:28.707Z,77.20
2018-02-15T04:07:58.313Z,79.10
2018-02-15T04:10:27.217Z,79.10
2018-02-15T04:12:56.940Z,78.90
2018-02-15T04:15:26.905Z,79.80
2018-02-15T04:17:55.880Z,79.70
2018-02-15T04:20:24.669Z,79.40
2018-02-15T04:22:53.582Z,79.80
2018-02-15T04:25:22.374Z,79.90
2018-02-15T04:27:51.260Z,78.60
2018-02-15T04:30:20.832Z,76.70
2018-02-15T04:32:50.054Z,76.50
2018-02-15T04:35:19.073Z,75.60
2018-02-15T04:37:48.842Z,71.90
2018-02-15T04:40:17.658Z,71.80
2018-02-15T04:42:46.426Z,71.10
2018-02-15T04:45:15.132Z,71.60
2018-02-15T04:47:43.862Z,72.40
2018-02-15T04:50:12.669Z,73.80
2018-02-15T04:52:44.611Z,74.60
2018-02-15T04:55:14.690Z,74.70
2018-02-15T04:57:43.565Z,75.40
2018-02-15T05:00:12.561Z,75.60
2018-02-15T05:02:41.709Z,75.30
2018-02-15T05:05:10.580Z,75.00
2018-02-15T05:07:40.384Z,73.60
2018-02-15T05:10:09.215Z,73.70
2018-02-15T05:12:39.089Z,74.00
2018-02-15T05:15:08.695Z,76.10
2018-02-15T05:17:37.549Z,76.10
2018-02-15T05:20:06.318Z,76.50
2018-02-15T05:22:35.286Z,77.40
2018-02-15T05:25:04.256Z,77.80
2018-02-15T05:27:33.800Z,77.10
2018-02-15T05:30:03.372Z,77.40
2018-02-15T05:32:32.169Z,77.30
2018-02-15T05:35:00.944Z,77.70
2018-02-15T05:37:29.827Z,77.50
2018-02-15T05:39:58.688Z,78.00
2018-02-15T05:42:27.551Z,78.60
2018-02-15T05:44:56.309Z,78.70
2018-02-15T05:47:25.032Z,78.20
2018-02-15T05:49:53.919Z,78.00
2018-02-15T05:52:22.888Z,78.50
2018-02-15T05:54:52.569Z,78.70
2018-02-15T05:57:22.098Z,77.70
2018-02-15T05:59:51.025Z,77.70
2018-02-15T06:02:20.146Z,76.80
2018-02-15T06:04:49.037Z,75.40
2018-02-15T06:07:18.064Z,75.70
2018-02-15T06:09:48.245Z,76.30
2018-02-15T06:12:17.010Z,76.30
2018-02-15T06:14:45.899Z,76.50
2018-02-15T06:17:15.651Z,76.70
2018-02-15T06:19:45.249Z,76.10
2018-02-15T06:22:15.325Z,76.90
2018-02-15T06:27:19.974Z,74.50
2018-02-15T06:29:48.741Z,74.50
2018-02-15T06:32:17.677Z,73.80
2018-02-15T06:34:46.877Z,73.60
2018-02-15T06:37:16.144Z,74.10
2018-02-15T06:39:44.934Z,73.50
2018-02-15T06:42:14.070Z,72.40
2018-02-15T06:44:43.750Z,73.60
2018-02-15T06:47:12.468Z,72.80
2018-02-15T06:49:41.378Z,71.70
2018-02-15T06:52:11.051Z,72.40
2018-02-15T06:54:40.214Z,72.20
2018-02-15T06:57:08.977Z,70.00
2018-02-15T06:59:38.004Z,71.10
2018-02-15T07:02:06.832Z,71.90
2018-02-15T07:04:35.906Z,72.10
2018-02-15T07:07:04.955Z,73.60
2018-02-15T07:09:34.440Z,70.70
2018-02-15T07:12:03.176Z,70.70
2018-02-15T07:14:31.947Z,70.10
2018-02-15T07:17:01.731Z,70.50
2018-02-15T07:19:31.671Z,70.40
2018-02-15T07:22:01.179Z,68.70
2018-02-15T07:24:31.160Z,69.00
2018-02-15T07:27:00.030Z,69.00
2018-02-15T07:29:29.330Z,66.50
2018-02-15T07:32:03.198Z,65.60
2018-02-15T07:34:32.053Z,64.50
2018-02-15T07:37:01.137Z,63.90
2018-02-15T07:39:30.153Z,63.00
2018-02-15T07:41:58.882Z,61.00
2018-02-15T07:44:27.635Z,61.40
2018-02-15T07:46:57.183Z,60.80
2018-02-15T07:49:27.013Z,59.50
2018-02-15T07:51:56.252Z,58.80
2018-02-15T07:54:25.166Z,58.90
2018-02-15T07:56:54.115Z,58.80
2018-02-15T07:59:23.719Z,57.50
2018-02-15T08:01:52.852Z,56.80
2018-02-15T08:04:22.606Z,57.40
2018-02-15T08:06:51.511Z,57.30
2018-02-15T08:09:20.592Z,55.10
2018-02-15T08:11:49.642Z,54.40
2018-02-15T08:14:18.566Z,54.00
2018-02-15T08:16:47.475Z,50.60
2018-02-15T08:19:16.309Z,49.00
2018-02-15T08:21:45.962Z,49.20
2018-02-15T08:24:14.692Z,49.20
2018-02-15T08:26:43.467Z,49.40
2018-02-15T08:29:12.303Z,49.60
2018-02-15T08:31:41.262Z,47.30
2018-02-15T08:34:10.214Z,45.80
2018-02-15T08:36:39.030Z,47.60
2018-02-15T08:39:07.860Z,46.00
2018-02-15T08:41:36.716Z,45.20
2018-02-15T08:44:05.817Z,44.90
2018-02-15T08:46:35.338Z,45.10
2018-02-15T08:49:08.239Z,45.50
2018-02-15T08:51:37.965Z,46.70
2018-02-15T08:54:06.922Z,46.60
2018-02-15T08:56:36.558Z,48.80
2018-02-15T08:59:05.474Z,48.80
2018-02-15T09:01:35.632Z,49.50
2018-02-15T09:04:05.235Z,50.30
2018-02-15T09:06:34.296Z,50.30
2018-02-15T09:09:03.333Z,49.20
2018-02-15T09:11:32.958Z,48.40
2018-02-15T09:14:01.776Z,48.30
2018-02-15T09:16:30.507Z,47.00
2018-02-15T09:19:00.109Z,46.60
2018-02-15T09:21:29.166Z,46.60
2018-02-15T09:23:57.970Z,47.00
2018-02-15T09:26:27.046Z,48.20
2018-02-15T09:28:55.730Z,48.20
2018-02-15T09:31:24.844Z,48.70
2018-02-15T09:33:53.573Z,47.80
2018-02-15T09:36:22.339Z,48.60
2018-02-15T09:38:51.141Z,48.80
2018-02-15T09:41:20.019Z,48.10
2018-02-15T09:43:49.004Z,48.30
2018-02-15T09:46:18.537Z,47.90
2018-02-15T09:48:47.298Z,47.30
2018-02-15T09:51:16.102Z,48.20
2018-02-15T09:53:44.902Z,49.50
2018-02-15T09:56:14.511Z,46.80
2018-02-15T09:58:43.586Z,46.70
2018-02-15T10:01:12.382Z,47.50
2018-02-15T10:03:41.749Z,48.00
2018-02-15T10:06:10.601Z,47.70
2018-02-15T10:08:40.440Z,46.90
2018-02-15T10:11:09.437Z,46.90
2018-02-15T10:13:38.440Z,47.20
2018-02-15T10:16:07.417Z,47.20
2018-02-15T10:18:36.369Z,47.00
2018-02-15T10:21:05.167Z,47.60
2018-02-15T10:23:33.929Z,46.70
2018-02-15T10:26:03.661Z,45.40
2018-02-15T10:28:32.629Z,45.30
2018-02-15T10:31:01.344Z,44.20
2018-02-15T10:33:30.205Z,45.40
2018-02-15T10:35:59.987Z,46.30
2018-02-15T10:38:28.991Z,46.20
2018-02-15T10:40:57.805Z,44.20
2018-02-15T10:43:26.958Z,44.50
2018-02-15T10:45:55.809Z,43.90
2018-02-15T10:48:25.398Z,43.40
2018-02-15T10:50:54.209Z,42.90
2018-02-15T10:53:23.113Z,43.00
2018-02-15T10:55:52.002Z,44.30
2018-02-15T10:58:20.822Z,44.00
2018-02-15T11:00:55.317Z,44.30
2018-02-15T11:03:30.066Z,42.30
2018-02-15T11:06:03.722Z,41.70
2018-02-15T11:08:32.651Z,43.50
2018-02-15T11:11:01.398Z,42.50
2018-02-15T11:13:31.184Z,42.80
2018-02-15T11:16:00.367Z,42.70
2018-02-15T11:18:29.354Z,41.80
2018-02-15T11:20:58.099Z,42.00
2018-02-15T11:23:27.024Z,42.10
2018-02-15T11:25:55.805Z,41.40
2018-02-15T11:28:24.597Z,43.20
2018-02-15T11:30:53.460Z,42.90
2018-02-15T11:33:22.973Z,44.40
2018-02-15T11:35:52.477Z,44.20
2018-02-15T11:38:21.321Z,44.10
2018-02-15T11:40:50.123Z,42.90
2018-02-15T11:43:19.084Z,43.00
2018-02-15T11:45:47.902Z,42.90
2018-02-15T11:48:17.069Z,41.70
2018-02-15T11:50:46.144Z,41.40
2018-02-15T11:53:14.922Z,41.30
2018-02-15T11:55:43.994Z,42.90
2018-02-15T11:58:12.875Z,43.80
2018-02-15T12:00:42.630Z,43.40
2018-02-15T12:03:11.598Z,43.30
2018-02-15T12:05:41.145Z,42.80
2018-02-15T12:08:10.011Z,42.80
2018-02-15T12:10:38.884Z,42.80
2018-02-15T12:13:07.797Z,44.80
2018-02-15T12:15:36.671Z,42.30
2018-02-15T12:18:06.205Z,43.10
2018-02-15T12:20:35.348Z,42.90
2018-02-15T12:23:04.404Z,44.50
2018-02-15T12:25:33.389Z,43.60
2018-02-15T12:28:02.105Z,41.80
2018-02-15T12:30:31.692Z,39.90
2018-02-15T12:33:00.579Z,39.80
2018-02-15T12:35:29.800Z,41.20
2018-02-15T12:37:58.747Z,39.50
2018-02-15T12:40:27.635Z,39.60
2018-02-15T12:42:56.506Z,39.00
2018-02-15T12:45:26.078Z,39.10
2018-02-15T12:47:54.951Z,39.00
2018-02-15T12:50:23.862Z,38.20
2018-02-15T12:52:52.617Z,35.50
2018-02-15T12:55:21.463Z,37.80
2018-02-15T12:57:50.348Z,36.60
2018-02-15T13:00:19.295Z,37.30
2018-02-15T13:02:48.089Z,37.40
2018-02-15T13:05:17.000Z,36.80
2018-02-15T13:07:46.710Z,37.00
2018-02-15T13:10:15.493Z,37.00
2018-02-15T13:12:56.387Z,37.20
2018-02-15T13:15:36.693Z,37.80
2018-02-15T13:18:05.350Z,38.40
2018-02-15T13:20:34.269Z,37.20
2018-02-15T13:23:03.060Z,38.70
2018-02-15T13:25:32.383Z,38.70
2018-02-15T13:28:13.248Z,39.60
2018-02-15T13:30:42.713Z,40.90
2018-02-15T13:33:12.298Z,42.30
2018-02-15T13:35:41.106Z,42.30
2018-02-15T13:38:10.017Z,42.00
2018-02-15T13:40:38.832Z,40.30
2018-02-15T13:43:07.665Z,39.20
2018-02-15T13:45:37.182Z,41.00
2018-02-15T13:48:06.066Z,40.90
2018-02-15T13:50:35.810Z,40.70
2018-02-15T13:53:05.396Z,41.70
2018-02-15T13:55:34.429Z,42.20
2018-02-15T13:58:03.230Z,42.00
2018-02-15T14:00:32.096Z,40.90
2018-02-15T14:03:01.023Z,41.30
2018-02-15T14:05:29.962Z,42.00
2018-02-15T14:07:58.970Z,41.50
2018-02-15T14:10:27.687Z,41.50
2018-02-15T14:12:56.846Z,42.30
2018-02-15T14:15:25.783Z,41.80
2018-02-15T14:17:54.763Z,41.90
2018-02-15T14:20:23.638Z,41.90
2018-02-15T14:22:54.242Z,42.60
2018-02-15T14:25:23.467Z,42.10
2018-02-15T14:27:52.200Z,43.20
2018-02-15T14:30:21.240Z,42.70
2018-02-15T14:32:50.075Z,43.70
2018-02-15T14:35:18.976Z,43.30
2018-02-15T14:37:48.655Z,43.00
2018-02-15T14:40:18.289Z,42.50
2018-02-15T14:42:47.923Z,43.50
2018-02-15T14:45:17.556Z,42.60
2018-02-15T14:47:47.109Z,43.30
2018-02-15T14:50:15.944Z,43.20
2018-02-15T14:52:44.841Z,44.20
2018-02-15T14:55:14.068Z,43.90
2018-02-15T14:57:43.742Z,45.00
2018-02-15T15:00:12.662Z,45.00
2018-02-15T15:02:41.661Z,45.30
2018-02-15T15:05:10.534Z,45.80
2018-02-15T15:07:40.086Z,47.10
2018-02-15T15:10:08.813Z,47.00
2018-02-15T15:12:37.673Z,46.90
2018-02-15T15:15:07.240Z,46.80
2018-02-15T15:17:36.458Z,46.80
2018-02-15T15:20:06.141Z,47.90
2018-02-15T15:22:35.062Z,47.90
2018-02-15T15:25:04.710Z,48.60
2018-02-15T15:27:34.381Z,48.60
2018-02-15T15:30:03.114Z,49.20
2018-02-15T15:32:31.962Z,48.80
2018-02-15T15:35:01.414Z,49.80
2018-02-15T15:37:30.367Z,49.80
2018-02-15T15:39:59.318Z,50.00
2018-02-15T15:42:28.172Z,50.00
2018-02-15T15:44:56.957Z,50.30
2018-02-15T15:47:25.841Z,50.10
2018-02-15T15:49:54.963Z,50.10
2018-02-15T15:52:23.733Z,50.20
2018-02-15T15:54:53.581Z,49.80
2018-02-15T15:57:22.345Z,49.40
2018-02-15T15:59:51.275Z,49.80
2018-02-15T16:02:20.598Z,50.30
2018-02-15T16:04:49.413Z,51.20
2018-02-15T16:07:18.097Z,51.50
2018-02-15T16:09:46.944Z,51.70
2018-02-15T16:12:15.780Z,51.40
2018-02-15T16:14:44.580Z,51.40
2018-02-15T16:17:13.538Z,50.90
2018-02-15T16:19:42.382Z,50.50
2018-02-15T16:22:11.141Z,50.10
2018-02-15T16:24:40.103Z,51.10
2018-02-15T16:27:08.919Z,50.50
2018-02-15T16:29:37.717Z,50.30
2018-02-15T16:32:06.481Z,50.40
2018-02-15T16:34:35.457Z,50.60
2018-02-15T16:37:04.344Z,50.90
2018-02-15T16:39:33.853Z,51.00
2018-02-15T16:42:02.753Z,51.30
2018-02-15T16:44:31.564Z,51.70
2018-02-15T16:47:00.576Z,52.60
2018-02-15T16:49:29.429Z,52.90
2018-02-15T16:51:58.180Z,53.40
2018-02-15T16:54:26.873Z,54.90
2018-02-15T16:56:55.848Z,56.40
2018-02-15T16:59:24.608Z,56.20
2018-02-15T17:01:53.605Z,58.60
2018-02-15T17:04:22.709Z,57.50
2018-02-15T17:06:51.720Z,56.90
2018-02-15T17:09:20.673Z,58.80
2018-02-15T17:11:49.522Z,58.20
2018-02-15T17:14:18.286Z,56.40
2018-02-15T17:16:47.232Z,55.20
2018-02-15T17:19:16.024Z,55.60
2018-02-15T17:21:45.074Z,54.70
2018-02-15T17:24:14.336Z,53.30
2018-02-15T17:26:44.190Z,52.00
2018-02-15T17:29:13.706Z,51.40
2018-02-15T17:31:42.448Z,51.40
2018-02-15T17:34:11.211Z,51.90
2018-02-15T17:36:40.373Z,51.90
2018-02-15T17:39:09.148Z,52.00
2018-02-15T17:41:37.946Z,52.60
2018-02-15T17:44:06.969Z,53.20
2018-02-15T17:46:35.936Z,53.70
2018-02-15T17:49:04.868Z,54.10
2018-02-15T17:51:34.576Z,56.30
2018-02-15T17:54:03.364Z,55.80
2018-02-15T17:56:32.227Z,54.90
2018-02-15T17:59:01.029Z,56.00
2018-02-15T18:01:29.919Z,60.10
2018-02-15T18:03:58.721Z,62.80
2018-02-15T18:06:27.681Z,64.10
2018-02-15T18:08:56.685Z,64.70
2018-02-15T18:11:25.889Z,64.70
2018-02-15T18:13:54.669Z,64.20
2018-02-15T18:16:24.580Z,64.80
2018-02-15T18:18:54.116Z,65.70
2018-02-15T18:21:23.016Z,65.70
2018-02-15T18:23:51.818Z,65.00
2018-02-15T18:26:20.626Z,65.40
2018-02-15T18:28:49.641Z,66.20
2018-02-15T18:31:19.214Z,67.10
2018-02-15T18:33:48.054Z,67.00
2018-02-15T18:36:16.871Z,68.50
2018-02-15T18:38:46.523Z,68.00
2018-02-15T18:41:15.393Z,67.90
2018-02-15T18:43:44.972Z,68.40
2018-02-15T18:46:14.817Z,67.90
2018-02-15T18:48:43.908Z,67.80
2018-02-15T18:51:12.805Z,68.80
2018-02-15T18:53:42.425Z,71.00
2018-02-15T18:56:11.306Z,70.90
2018-02-15T18:58:40.449Z,71.50
2018-02-15T19:01:09.154Z,72.40
2018-02-15T19:03:37.932Z,73.10
2018-02-15T19:06:06.726Z,73.30
2018-02-15T19:08:35.620Z,73.40
2018-02-15T19:11:04.476Z,73.80
2018-02-15T19:13:34.092Z,74.00
2018-02-15T19:16:03.305Z,74.00
2018-02-15T19:18:32.489Z,74.00
2018-02-15T19:21:02.357Z,73.60
2018-02-15T19:23:31.956Z,73.70
2018-02-15T19:26:01.055Z,73.70
2018-02-15T19:28:30.213Z,73.60
2018-02-15T19:31:00.034Z,73.60
2018-02-15T19:33:28.769Z,73.50
2018-02-15T19:35:58.302Z,73.00
2018-02-15T19:38:27.976Z,72.60
2018-02-15T19:40:56.683Z,72.60
2018-02-15T19:43:25.450Z,72.50
2018-02-15T19:45:54.249Z,72.50
2018-02-15T19:48:22.985Z,72.30
2018-02-15T19:50:52.244Z,72.60
2018-02-15T19:53:21.089Z,72.70
2018-02-15T19:55:50.069Z,73.40
2018-02-15T19:58:18.883Z,73.90
2018-02-15T20:00:47.690Z,74.50
2018-02-15T20:03:16.594Z,74.50
2018-02-15T20:05:45.442Z,74.70
2018-02-15T20:08:14.476Z,74.30
2018-02-15T20:10:43.998Z,74.70
2018-02-15T20:13:13.154Z,74.60
2018-02-15T20:15:46.893Z,75.40
2018-02-15T20:18:15.966Z,75.30
2018-02-15T20:20:45.954Z,75.40
2018-02-15T20:23:14.698Z,75.20
2018-02-15T20:25:43.571Z,75.10
2018-02-15T20:28:16.163Z,75.60
2018-02-15T20:30:45.768Z,75.70
2018-02-15T20:33:14.594Z,75.60
2018-02-15T20:35:43.369Z,75.60
2018-02-15T20:41:19.067Z,75.30
2018-02-15T20:43:48.682Z,75.40
2018-02-15T20:46:17.449Z,75.40
2018-02-15T20:48:46.367Z,75.50
2018-02-15T20:51:20.887Z,75.30
2018-02-15T20:53:55.372Z,76.30
2018-02-15T20:56:24.327Z,75.30
2018-02-15T20:58:53.133Z,74.90
2018-02-15T21:01:22.653Z,75.10
2018-02-15T21:03:51.574Z,75.10
2018-02-15T21:06:20.825Z,74.90
2018-02-15T21:08:49.679Z,74.50
2018-02-15T21:11:19.421Z,75.10
2018-02-15T21:13:49.007Z,76.20
2018-02-15T21:16:18.521Z,76.50
2018-02-15T21:18:47.806Z,76.50
2018-02-15T21:21:16.629Z,76.60
2018-02-15T21:23:45.571Z,75.10
2018-02-15T21:26:14.658Z,75.20
2018-02-15T21:28:56.280Z,76.60
2018-02-15T21:31:27.778Z,76.70
2018-02-15T21:33:56.496Z,76.90
2018-02-15T21:36:26.474Z,76.90
2018-02-15T21:38:55.409Z,77.00
2018-02-15T21:41:24.396Z,77.50
2018-02-15T21:43:54.039Z,77.20
2018-02-15T21:46:23.106Z,77.20
2018-02-15T21:48:52.668Z,77.20
2018-02-15T21:51:21.931Z,77.10
2018-02-15T21:53:50.883Z,77.10
2018-02-15T21:56:19.720Z,77.40
2018-02-15T21:58:48.455Z,77.40
2018-02-15T22:01:17.235Z,77.50
2018-02-15T22:03:46.032Z,77.40
2018-02-15T22:06:15.992Z,76.90
2018-02-15T22:08:45.062Z,77.50
2018-02-15T22:11:14.967Z,77.20
2018-02-15T22:13:43.888Z,77.20
2018-02-15T22:16:12.672Z,77.60
2018-02-15T22:18:42.171Z,77.90
2018-02-15T22:21:10.919Z,77.80
2018-02-15T22:23:39.855Z,77.70
2018-02-15T22:26:09.479Z,78.20
2018-02-15T22:28:39.207Z,78.10
2018-02-15T22:31:08.152Z,78.10
2018-02-15T22:33:36.954Z,78.10
2018-02-15T22:36:07.894Z,78.80
2018-02-15T22:38:36.955Z,78.80
2018-02-15T22:41:05.849Z,79.20
2018-02-15T22:43:35.111Z,78.50
2018-02-15T22:46:03.950Z,79.00
2018-02-15T22:48:33.570Z,79.30
2018-02-15T22:51:02.486Z,79.30
2018-02-15T22:53:31.357Z,79.00
2018-02-15T22:56:00.325Z,78.50
2018-02-15T22:58:29.884Z,78.60
2018-02-15T23:00:58.657Z,78.20
2018-02-15T23:03:27.687Z,78.20
2018-02-15T23:05:56.404Z,78.60
2018-02-15T23:08:25.138Z,79.30
2018-02-15T23:10:54.023Z,78.60
2018-02-15T23:13:23.609Z,79.40
2018-02-15T23:15:53.468Z,79.00
2018-02-15T23:18:22.257Z,79.00
2018-02-15T23:20:51.109Z,78.90
2018-02-15T23:23:20.645Z,79.30
2018-02-15T23:25:49.394Z,79.20
2018-02-15T23:28:18.172Z,79.50
2018-02-15T23:30:46.917Z,79.70
2018-02-15T23:33:15.858Z,80.10
2018-02-15T23:35:45.382Z,80.40
2018-02-15T23:38:14.918Z,79.80
2018-02-15T23:40:43.709Z,79.70
2018-02-15T23:43:12.703Z,79.80
2018-02-15T23:45:41.705Z,79.90
2018-02-15T23:48:10.592Z,80.60
2018-02-15T23:50:39.874Z,80.10
2018-02-15T23:53:08.632Z,80.40
2018-02-15T23:55:37.602Z,79.20
2018-02-15T23:58:06.514Z,79.00
